Fenton, Iowa
Current Conditions -  °F | °C
As of 2:35 PM on Thursday 29 Jan 2015 (Local Time) from KAXA Reporting Station
Overcast Overcast  
Wind Chill: 14°   Ceiling: 2200
Heat Index: 28°   Visibility: 10mi
Dew Point: 21°   Wind: 23mph
Humidity: 74%   Direction: 350°N
Pressure: 30.34"   Gusts: 33mph
Location:  43.22°N, 94.43°W
Report Text: KAXA 292035Z AUTO 35020G29KT 10SM OVC022 M02/M06 A3034 RMK AO2
Loading
Personal Weather Stations






























Interactive Weather Map New forecast layout! Learn more

10-Day Weather Forecast

Advertisements
Track Severe Weather on mobile